sensor_id;sensor_type;location;lat;lon;timestamp;P1;durP1;ratioP1;P2;durP2;ratioP2
59239;SDS011;45010;53.640;10.578;2023-04-01T00:01:57;0.55;;;0.43;;
59239;SDS011;45010;53.640;10.578;2023-04-01T00:04:58;0.77;;;0.45;;
59239;SDS011;45010;53.640;10.578;2023-04-01T00:07:58;1.15;;;0.47;;
59239;SDS011;45010;53.640;10.578;2023-04-01T00:10:58;1.65;;;0.40;;
59239;SDS011;45010;53.640;10.578;2023-04-01T00:13:59;0.80;;;0.60;;
59239;SDS011;45010;53.640;10.578;2023-04-01T00:17:00;1.77;;;1.02;;
59239;SDS011;45010;53.640;10.578;2023-04-01T00:20:00;0.70;;;0.50;;
59239;SDS011;45010;53.640;10.578;2023-04-01T00:23:01;1.48;;;0.52;;
59239;SDS011;45010;53.640;10.578;2023-04-01T00:26:02;0.63;;;0.50;;
59239;SDS011;45010;53.640;10.578;2023-04-01T00:29:03;0.85;;;0.63;;
59239;SDS011;45010;53.640;10.578;2023-04-01T00:32:04;0.82;;;0.60;;
59239;SDS011;45010;53.640;10.578;2023-04-01T00:35:04;0.85;;;0.60;;
59239;SDS011;45010;53.640;10.578;2023-04-01T00:38:05;1.33;;;0.50;;
59239;SDS011;45010;53.640;10.578;2023-04-01T00:41:06;0.75;;;0.50;;
59239;SDS011;45010;53.640;10.578;2023-04-01T00:44:23;0.47;;;0.45;;
59239;SDS011;45010;53.640;10.578;2023-04-01T00:47:26;0.98;;;0.63;;
59239;SDS011;45010;53.640;10.578;2023-04-01T00:50:27;0.95;;;0.50;;
59239;SDS011;45010;53.640;10.578;2023-04-01T00:53:29;1.38;;;0.40;;
59239;SDS011;45010;53.640;10.578;2023-04-01T00:56:37;2.28;;;0.60;;
59239;SDS011;45010;53.640;10.578;2023-04-01T00:59:43;0.68;;;0.50;;
59239;SDS011;45010;53.640;10.578;2023-04-01T01:02:45;0.77;;;0.47;;
59239;SDS011;45010;53.640;10.578;2023-04-01T01:05:59;0.73;;;0.40;;
59239;SDS011;45010;53.640;10.578;2023-04-01T01:16:00;0.45;;;0.40;;
59239;SDS011;45010;53.640;10.578;2023-04-01T01:19:21;0.93;;;0.47;;
59239;SDS011;45010;53.640;10.578;2023-04-01T01:22:52;1.42;;;0.50;;
59239;SDS011;45010;53.640;10.578;2023-04-01T01:26:26;0.70;;;0.40;;
59239;SDS011;45010;53.640;10.578;2023-04-01T01:33:20;0.90;;;0.50;;
59239;SDS011;45010;53.640;10.578;2023-04-01T01:36:32;0.60;;;0.50;;
59239;SDS011;45010;53.640;10.578;2023-04-01T01:39:37;0.68;;;0.60;;
59239;SDS011;45010;53.640;10.578;2023-04-01T01:42:39;0.40;;;0.40;;
59239;SDS011;45010;53.640;10.578;2023-04-01T01:45:49;1.13;;;0.40;;
59239;SDS011;45010;53.640;10.578;2023-04-01T01:48:55;1.15;;;0.55;;
59239;SDS011;45010;53.640;10.578;2023-04-01T01:51:59;0.50;;;0.40;;
59239;SDS011;45010;53.640;10.578;2023-04-01T01:54:59;1.08;;;0.73;;
59239;SDS011;45010;53.640;10.578;2023-04-01T01:58:08;0.88;;;0.47;;
59239;SDS011;45010;53.640;10.578;2023-04-01T02:01:20;0.47;;;0.40;;
59239;SDS011;45010;53.640;10.578;2023-04-01T02:04:25;0.70;;;0.52;;
59239;SDS011;45010;53.640;10.578;2023-04-01T02:07:30;1.05;;;0.47;;
59239;SDS011;45010;53.640;10.578;2023-04-01T02:10:35;0.68;;;0.50;;
59239;SDS011;45010;53.640;10.578;2023-04-01T02:13:40;0.60;;;0.50;;
59239;SDS011;45010;53.640;10.578;2023-04-01T02:17:01;1.13;;;0.60;;
59239;SDS011;45010;53.640;10.578;2023-04-01T02:20:04;0.63;;;0.60;;
59239;SDS011;45010;53.640;10.578;2023-04-01T02:23:08;0.50;;;0.50;;
59239;SDS011;45010;53.640;10.578;2023-04-01T02:26:10;0.40;;;0.40;;
59239;SDS011;45010;53.640;10.578;2023-04-01T02:29:12;0.40;;;0.35;;
59239;SDS011;45010;53.640;10.578;2023-04-01T02:32:13;0.95;;;0.43;;
59239;SDS011;45010;53.640;10.578;2023-04-01T02:35:17;0.30;;;0.30;;
59239;SDS011;45010;53.640;10.578;2023-04-01T02:38:17;1.15;;;0.50;;
59239;SDS011;45010;53.640;10.578;2023-04-01T02:41:18;0.70;;;0.50;;
59239;SDS011;45010;53.640;10.578;2023-04-01T02:44:18;0.80;;;0.43;;
59239;SDS011;45010;53.640;10.578;2023-04-01T02:47:18;1.40;;;0.60;;
59239;SDS011;45010;53.640;10.578;2023-04-01T02:50:19;0.50;;;0.50;;
59239;SDS011;45010;53.640;10.578;2023-04-01T02:53:19;0.98;;;0.50;;
59239;SDS011;45010;53.640;10.578;2023-04-01T02:56:19;0.73;;;0.60;;
59239;SDS011;45010;53.640;10.578;2023-04-01T02:59:20;0.60;;;0.40;;
59239;SDS011;45010;53.640;10.578;2023-04-01T03:02:20;0.50;;;0.50;;
59239;SDS011;45010;53.640;10.578;2023-04-01T03:05:21;0.68;;;0.50;;
59239;SDS011;45010;53.640;10.578;2023-04-01T03:08:21;0.40;;;0.35;;
59239;SDS011;45010;53.640;10.578;2023-04-01T03:11:22;0.82;;;0.45;;
59239;SDS011;45010;53.640;10.578;2023-04-01T03:14:22;1.42;;;0.50;;
59239;SDS011;45010;53.640;10.578;2023-04-01T03:17:23;0.70;;;0.40;;
59239;SDS011;45010;53.640;10.578;2023-04-01T03:20:23;1.65;;;0.50;;
59239;SDS011;45010;53.640;10.578;2023-04-01T03:23:23;0.82;;;0.50;;
59239;SDS011;45010;53.640;10.578;2023-04-01T03:26:24;0.55;;;0.50;;
59239;SDS011;45010;53.640;10.578;2023-04-01T03:29:26;0.40;;;0.40;;
59239;SDS011;45010;53.640;10.578;2023-04-01T03:32:26;0.52;;;0.52;;
59239;SDS011;45010;53.640;10.578;2023-04-01T03:35:27;0.63;;;0.40;;
59239;SDS011;45010;53.640;10.578;2023-04-01T03:38:28;0.75;;;0.50;;
59239;SDS011;45010;53.640;10.578;2023-04-01T03:41:28;0.57;;;0.50;;
59239;SDS011;45010;53.640;10.578;2023-04-01T03:44:32;1.10;;;0.60;;
59239;SDS011;45010;53.640;10.578;2023-04-01T03:47:33;0.40;;;0.30;;
59239;SDS011;45010;53.640;10.578;2023-04-01T03:50:34;1.23;;;0.50;;
59239;SDS011;45010;53.640;10.578;2023-04-01T03:53:35;0.38;;;0.35;;
59239;SDS011;45010;53.640;10.578;2023-04-01T03:56:35;0.55;;;0.35;;
59239;SDS011;45010;53.640;10.578;2023-04-01T03:59:36;0.98;;;0.50;;
59239;SDS011;45010;53.640;10.578;2023-04-01T04:02:36;0.65;;;0.50;;
59239;SDS011;45010;53.640;10.578;2023-04-01T04:05:36;0.73;;;0.60;;
59239;SDS011;45010;53.640;10.578;2023-04-01T04:08:37;0.60;;;0.32;;
59239;SDS011;45010;53.640;10.578;2023-04-01T04:11:38;1.17;;;0.45;;
59239;SDS011;45010;53.640;10.578;2023-04-01T04:14:38;0.82;;;0.50;;
59239;SDS011;45010;53.640;10.578;2023-04-01T04:17:38;0.45;;;0.45;;
59239;SDS011;45010;53.640;10.578;2023-04-01T04:20:43;0.35;;;0.30;;
59239;SDS011;45010;53.640;10.578;2023-04-01T04:23:48;0.85;;;0.40;;
59239;SDS011;45010;53.640;10.578;2023-04-01T04:26:48;0.57;;;0.50;;
59239;SDS011;45010;53.640;10.578;2023-04-01T04:29:49;0.50;;;0.30;;
59239;SDS011;45010;53.640;10.578;2023-04-01T04:32:49;0.50;;;0.30;;
59239;SDS011;45010;53.640;10.578;2023-04-01T04:35:49;0.30;;;0.30;;
59239;SDS011;45010;53.640;10.578;2023-04-01T04:38:50;0.25;;;0.22;;
59239;SDS011;45010;53.640;10.578;2023-04-01T04:41:50;0.57;;;0.50;;
59239;SDS011;45010;53.640;10.578;2023-04-01T04:44:51;0.20;;;0.20;;
59239;SDS011;45010;53.640;10.578;2023-04-01T04:47:51;0.38;;;0.32;;
59239;SDS011;45010;53.640;10.578;2023-04-01T04:50:51;0.30;;;0.30;;
59239;SDS011;45010;53.640;10.578;2023-04-01T04:53:52;0.70;;;0.38;;
59239;SDS011;45010;53.640;10.578;2023-04-01T04:56:52;0.80;;;0.30;;
59239;SDS011;45010;53.640;10.578;2023-04-01T04:59:53;0.63;;;0.30;;
59239;SDS011;45010;53.640;10.578;2023-04-01T05:02:53;0.60;;;0.40;;
59239;SDS011;45010;53.640;10.578;2023-04-01T05:05:53;0.40;;;0.30;;
59239;SDS011;45010;53.640;10.578;2023-04-01T05:08:54;0.40;;;0.30;;
59239;SDS011;45010;53.640;10.578;2023-04-01T05:11:55;0.38;;;0.30;;
59239;SDS011;45010;53.640;10.578;2023-04-01T05:14:55;0.22;;;0.22;;
59239;SDS011;45010;53.640;10.578;2023-04-01T05:17:55;0.30;;;0.30;;
59239;SDS011;45010;53.640;10.578;2023-04-01T05:20:56;0.20;;;0.20;;
59239;SDS011;45010;53.640;10.578;2023-04-01T05:23:56;0.35;;;0.28;;
59239;SDS011;45010;53.640;10.578;2023-04-01T05:26:57;0.57;;;0.35;;
59239;SDS011;45010;53.640;10.578;2023-04-01T05:29:58;0.93;;;0.22;;
59239;SDS011;45010;53.640;10.578;2023-04-01T05:32:58;0.25;;;0.25;;
59239;SDS011;45010;53.640;10.578;2023-04-01T05:36:32;0.20;;;0.20;;
59239;SDS011;45010;53.640;10.578;2023-04-01T05:39:25;2.85;;;0.30;;
59239;SDS011;45010;53.640;10.578;2023-04-01T05:42:26;1.25;;;0.35;;
59239;SDS011;45010;53.640;10.578;2023-04-01T05:45:26;0.40;;;0.30;;
59239;SDS011;45010;53.640;10.578;2023-04-01T05:48:27;0.32;;;0.30;;
59239;SDS011;45010;53.640;10.578;2023-04-01T05:51:27;0.65;;;0.35;;
59239;SDS011;45010;53.640;10.578;2023-04-01T05:54:27;0.57;;;0.35;;
59239;SDS011;45010;53.640;10.578;2023-04-01T05:57:28;0.30;;;0.30;;
59239;SDS011;45010;53.640;10.578;2023-04-01T06:00:28;1.85;;;0.30;;
59239;SDS011;45010;53.640;10.578;2023-04-01T06:03:28;1.45;;;0.40;;
59239;SDS011;45010;53.640;10.578;2023-04-01T06:06:29;0.50;;;0.20;;
59239;SDS011;45010;53.640;10.578;2023-04-01T06:09:31;0.38;;;0.30;;
59239;SDS011;45010;53.640;10.578;2023-04-01T06:12:45;0.85;;;0.20;;
59239;SDS011;45010;53.640;10.578;2023-04-01T06:19:23;0.70;;;0.40;;
59239;SDS011;45010;53.640;10.578;2023-04-01T06:22:46;1.08;;;0.40;;
59239;SDS011;45010;53.640;10.578;2023-04-01T06:26:00;0.65;;;0.30;;
59239;SDS011;45010;53.640;10.578;2023-04-01T06:32:42;2.47;;;0.40;;
59239;SDS011;45010;53.640;10.578;2023-04-01T06:36:02;2.30;;;0.35;;
59239;SDS011;45010;53.640;10.578;2023-04-01T06:39:09;3.40;;;0.40;;
59239;SDS011;45010;53.640;10.578;2023-04-01T06:49:05;0.85;;;0.57;;
59239;SDS011;45010;53.640;10.578;2023-04-01T06:52:29;1.52;;;0.32;;
59239;SDS011;45010;53.640;10.578;2023-04-01T06:56:00;2.33;;;0.30;;
59239;SDS011;45010;53.640;10.578;2023-04-01T06:59:15;1.27;;;0.38;;
59239;SDS011;45010;53.640;10.578;2023-04-01T07:02:28;4.97;;;0.47;;
59239;SDS011;45010;53.640;10.578;2023-04-01T07:05:36;0.60;;;0.20;;
59239;SDS011;45010;53.640;10.578;2023-04-01T07:08:36;1.17;;;0.20;;
59239;SDS011;45010;53.640;10.578;2023-04-01T07:11:41;1.90;;;0.40;;
59239;SDS011;45010;53.640;10.578;2023-04-01T07:14:43;2.83;;;0.47;;
59239;SDS011;45010;53.640;10.578;2023-04-01T07:17:44;1.95;;;0.47;;
59239;SDS011;45010;53.640;10.578;2023-04-01T07:20:47;4.30;;;0.45;;
59239;SDS011;45010;53.640;10.578;2023-04-01T07:23:49;2.33;;;0.77;;
59239;SDS011;45010;53.640;10.578;2023-04-01T07:26:53;3.75;;;0.43;;
59239;SDS011;45010;53.640;10.578;2023-04-01T07:29:56;2.95;;;0.50;;
59239;SDS011;45010;53.640;10.578;2023-04-01T07:33:04;3.03;;;0.40;;
59239;SDS011;45010;53.640;10.578;2023-04-01T07:42:47;12.85;;;3.40;;
59239;SDS011;45010;53.640;10.578;2023-04-01T07:49:17;20.02;;;3.50;;
59239;SDS011;45010;53.640;10.578;2023-04-01T07:52:21;11.23;;;2.72;;
59239;SDS011;45010;53.640;10.578;2023-04-01T08:05:33;12.18;;;2.83;;
59239;SDS011;45010;53.640;10.578;2023-04-01T08:08:47;14.25;;;2.88;;
59239;SDS011;45010;53.640;10.578;2023-04-01T08:12:55;13.20;;;3.10;;
59239;SDS011;45010;53.640;10.578;2023-04-01T08:15:26;13.75;;;2.97;;
59239;SDS011;45010;53.640;10.578;2023-04-01T08:21:52;7.85;;;2.28;;
59239;SDS011;45010;53.640;10.578;2023-04-01T08:24:58;10.10;;;3.25;;
59239;SDS011;45010;53.640;10.578;2023-04-01T08:31:25;8.80;;;2.50;;
59239;SDS011;45010;53.640;10.578;2023-04-01T08:34:40;7.22;;;2.17;;
59239;SDS011;45010;53.640;10.578;2023-04-01T08:37:44;10.13;;;2.03;;
59239;SDS011;45010;53.640;10.578;2023-04-01T08:44:33;7.15;;;2.05;;
59239;SDS011;45010;53.640;10.578;2023-04-01T08:54:44;5.90;;;1.77;;
59239;SDS011;45010;53.640;10.578;2023-04-01T09:15:20;14.13;;;2.53;;
59239;SDS011;45010;53.640;10.578;2023-04-01T09:31:40;10.48;;;3.20;;
59239;SDS011;45010;53.640;10.578;2023-04-01T09:38:20;11.43;;;2.28;;
59239;SDS011;45010;53.640;10.578;2023-04-01T09:45:23;10.05;;;2.85;;
59239;SDS011;45010;53.640;10.578;2023-04-01T09:52:07;6.18;;;2.00;;
59239;SDS011;45010;53.640;10.578;2023-04-01T09:55:38;7.13;;;2.47;;
59239;SDS011;45010;53.640;10.578;2023-04-01T09:59:15;7.63;;;2.33;;
59239;SDS011;45010;53.640;10.578;2023-04-01T10:02:46;5.35;;;2.42;;
59239;SDS011;45010;53.640;10.578;2023-04-01T10:09:51;5.38;;;1.95;;
59239;SDS011;45010;53.640;10.578;2023-04-01T10:13:23;5.53;;;2.08;;
59239;SDS011;45010;53.640;10.578;2023-04-01T10:20:08;6.22;;;1.92;;
59239;SDS011;45010;53.640;10.578;2023-04-01T10:23:27;5.82;;;1.75;;
59239;SDS011;45010;53.640;10.578;2023-04-01T10:33:41;4.82;;;2.00;;
59239;SDS011;45010;53.640;10.578;2023-04-01T10:37:29;7.25;;;2.28;;
59239;SDS011;45010;53.640;10.578;2023-04-01T10:40:37;4.38;;;1.38;;
59239;SDS011;45010;53.640;10.578;2023-04-01T10:47:24;5.35;;;1.58;;
59239;SDS011;45010;53.640;10.578;2023-04-01T11:08:16;3.60;;;1.30;;
59239;SDS011;45010;53.640;10.578;2023-04-01T11:12:02;3.28;;;1.30;;
59239;SDS011;45010;53.640;10.578;2023-04-01T11:18:51;2.92;;;1.48;;
59239;SDS011;45010;53.640;10.578;2023-04-01T11:29:33;3.53;;;1.50;;
59239;SDS011;45010;53.640;10.578;2023-04-01T11:36:23;3.25;;;1.10;;
59239;SDS011;45010;53.640;10.578;2023-04-01T11:43:12;4.97;;;1.55;;
59239;SDS011;45010;53.640;10.578;2023-04-01T11:50:18;2.00;;;0.98;;
59239;SDS011;45010;53.640;10.578;2023-04-01T11:59:46;2.38;;;1.35;;
59239;SDS011;45010;53.640;10.578;2023-04-01T12:06:30;2.28;;;1.30;;
59239;SDS011;45010;53.640;10.578;2023-04-01T12:09:54;2.45;;;1.08;;
59239;SDS011;45010;53.640;10.578;2023-04-01T12:13:21;2.70;;;1.10;;
59239;SDS011;45010;53.640;10.578;2023-04-01T12:23:25;2.42;;;1.15;;
59239;SDS011;45010;53.640;10.578;2023-04-01T12:26:44;2.03;;;0.90;;
59239;SDS011;45010;53.640;10.578;2023-04-01T12:30:18;2.55;;;1.30;;
59239;SDS011;45010;53.640;10.578;2023-04-01T12:36:54;3.53;;;1.20;;
59239;SDS011;45010;53.640;10.578;2023-04-01T12:40:06;3.00;;;1.17;;
59239;SDS011;45010;53.640;10.578;2023-04-01T12:46:59;1.08;;;0.90;;
59239;SDS011;45010;53.640;10.578;2023-04-01T12:53:34;2.88;;;0.90;;
59239;SDS011;45010;53.640;10.578;2023-04-01T13:00:16;1.88;;;0.90;;
59239;SDS011;45010;53.640;10.578;2023-04-01T13:03:53;1.63;;;1.00;;
59239;SDS011;45010;53.640;10.578;2023-04-01T13:14:13;1.85;;;1.00;;
59239;SDS011;45010;53.640;10.578;2023-04-01T13:37:39;1.83;;;0.85;;
59239;SDS011;45010;53.640;10.578;2023-04-01T13:40:58;2.10;;;1.05;;
59239;SDS011;45010;53.640;10.578;2023-04-01T13:44:11;2.15;;;0.77;;
59239;SDS011;45010;53.640;10.578;2023-04-01T13:50:43;1.63;;;1.00;;
59239;SDS011;45010;53.640;10.578;2023-04-01T13:57:14;2.22;;;0.93;;
59239;SDS011;45010;53.640;10.578;2023-04-01T14:07:12;1.02;;;0.85;;
59239;SDS011;45010;53.640;10.578;2023-04-01T14:10:25;1.80;;;1.00;;
59239;SDS011;45010;53.640;10.578;2023-04-01T14:13:41;1.30;;;0.77;;
59239;SDS011;45010;53.640;10.578;2023-04-01T14:37:13;1.58;;;0.80;;
59239;SDS011;45010;53.640;10.578;2023-04-01T14:40:39;2.28;;;0.80;;
59239;SDS011;45010;53.640;10.578;2023-04-01T14:50:29;1.75;;;0.90;;
59239;SDS011;45010;53.640;10.578;2023-04-01T14:57:13;1.13;;;0.77;;
59239;SDS011;45010;53.640;10.578;2023-04-01T15:00:16;1.15;;;0.70;;
59239;SDS011;45010;53.640;10.578;2023-04-01T15:06:52;3.58;;;1.25;;
59239;SDS011;45010;53.640;10.578;2023-04-01T15:13:29;3.35;;;1.50;;
59239;SDS011;45010;53.640;10.578;2023-04-01T15:16:47;8.38;;;1.85;;
59239;SDS011;45010;53.640;10.578;2023-04-01T15:20:25;8.48;;;1.35;;
59239;SDS011;45010;53.640;10.578;2023-04-01T15:23:46;6.45;;;1.50;;
59239;SDS011;45010;53.640;10.578;2023-04-01T15:27:02;4.78;;;1.27;;
59239;SDS011;45010;53.640;10.578;2023-04-01T15:30:18;5.30;;;1.23;;
59239;SDS011;45010;53.640;10.578;2023-04-01T15:49:45;4.55;;;1.13;;
59239;SDS011;45010;53.640;10.578;2023-04-01T15:59:20;2.65;;;0.98;;
59239;SDS011;45010;53.640;10.578;2023-04-01T16:06:23;4.50;;;1.52;;
59239;SDS011;45010;53.640;10.578;2023-04-01T16:09:52;4.07;;;1.25;;
59239;SDS011;45010;53.640;10.578;2023-04-01T16:13:16;2.65;;;1.30;;
59239;SDS011;45010;53.640;10.578;2023-04-01T16:16:45;4.20;;;1.20;;
59239;SDS011;45010;53.640;10.578;2023-04-01T16:20:03;7.45;;;1.30;;
59239;SDS011;45010;53.640;10.578;2023-04-01T16:26:43;4.50;;;1.35;;
59239;SDS011;45010;53.640;10.578;2023-04-01T16:29:54;5.57;;;2.00;;
59239;SDS011;45010;53.640;10.578;2023-04-01T16:33:02;7.20;;;2.38;;
59239;SDS011;45010;53.640;10.578;2023-04-01T16:39:46;6.35;;;1.90;;
59239;SDS011;45010;53.640;10.578;2023-04-01T16:43:15;7.60;;;2.03;;
59239;SDS011;45010;53.640;10.578;2023-04-01T16:49:42;7.43;;;2.25;;
59239;SDS011;45010;53.640;10.578;2023-04-01T16:59:13;5.88;;;2.35;;
59239;SDS011;45010;53.640;10.578;2023-04-01T17:02:21;6.15;;;2.00;;
59239;SDS011;45010;53.640;10.578;2023-04-01T17:05:40;5.55;;;2.00;;
59239;SDS011;45010;53.640;10.578;2023-04-01T17:09:05;8.57;;;1.52;;
59239;SDS011;45010;53.640;10.578;2023-04-01T17:16:10;5.18;;;1.65;;
59239;SDS011;45010;53.640;10.578;2023-04-01T17:22:52;7.18;;;1.90;;
59239;SDS011;45010;53.640;10.578;2023-04-01T17:29:24;9.13;;;1.70;;
59239;SDS011;45010;53.640;10.578;2023-04-01T17:32:52;5.95;;;1.80;;
59239;SDS011;45010;53.640;10.578;2023-04-01T17:36:25;5.38;;;1.77;;
59239;SDS011;45010;53.640;10.578;2023-04-01T17:39:39;4.72;;;2.00;;
59239;SDS011;45010;53.640;10.578;2023-04-01T17:43:10;3.10;;;1.40;;
59239;SDS011;45010;53.640;10.578;2023-04-01T17:46:25;6.15;;;1.48;;
59239;SDS011;45010;53.640;10.578;2023-04-01T17:56:38;3.58;;;1.70;;
59239;SDS011;45010;53.640;10.578;2023-04-01T17:59:59;3.75;;;1.40;;
59239;SDS011;45010;53.640;10.578;2023-04-01T18:09:36;2.72;;;1.30;;
59239;SDS011;45010;53.640;10.578;2023-04-01T18:13:13;3.35;;;1.50;;
59239;SDS011;45010;53.640;10.578;2023-04-01T18:23:06;3.70;;;1.48;;
59239;SDS011;45010;53.640;10.578;2023-04-01T18:26:22;4.07;;;1.60;;
59239;SDS011;45010;53.640;10.578;2023-04-01T18:32:57;7.55;;;1.70;;
59239;SDS011;45010;53.640;10.578;2023-04-01T18:36:08;3.00;;;1.80;;
59239;SDS011;45010;53.640;10.578;2023-04-01T18:39:22;6.22;;;1.63;;
59239;SDS011;45010;53.640;10.578;2023-04-01T18:45:58;3.15;;;1.52;;
59239;SDS011;45010;53.640;10.578;2023-04-01T18:52:22;4.07;;;2.13;;
59239;SDS011;45010;53.640;10.578;2023-04-01T18:55:37;5.18;;;1.80;;
59239;SDS011;45010;53.640;10.578;2023-04-01T18:58:46;4.57;;;1.45;;
59239;SDS011;45010;53.640;10.578;2023-04-01T19:02:00;3.75;;;1.73;;
59239;SDS011;45010;53.640;10.578;2023-04-01T19:08:44;3.35;;;1.60;;
59239;SDS011;45010;53.640;10.578;2023-04-01T19:15:15;2.85;;;1.67;;
59239;SDS011;45010;53.640;10.578;2023-04-01T19:21:27;2.88;;;1.27;;
59239;SDS011;45010;53.640;10.578;2023-04-01T19:28:02;4.38;;;1.38;;
59239;SDS011;45010;53.640;10.578;2023-04-01T19:38:02;2.40;;;1.38;;
59239;SDS011;45010;53.640;10.578;2023-04-01T19:41:15;3.67;;;1.55;;
59239;SDS011;45010;53.640;10.578;2023-04-01T19:44:41;2.85;;;1.48;;
59239;SDS011;45010;53.640;10.578;2023-04-01T19:51:18;3.35;;;1.33;;
59239;SDS011;45010;53.640;10.578;2023-04-01T19:54:37;1.60;;;1.30;;
59239;SDS011;45010;53.640;10.578;2023-04-01T20:01:05;4.20;;;1.45;;
59239;SDS011;45010;53.640;10.578;2023-04-01T20:04:33;2.70;;;1.20;;
59239;SDS011;45010;53.640;10.578;2023-04-01T20:07:41;2.17;;;1.38;;
59239;SDS011;45010;53.640;10.578;2023-04-01T20:14:07;3.00;;;1.50;;
59239;SDS011;45010;53.640;10.578;2023-04-01T20:17:43;2.08;;;1.25;;
59239;SDS011;45010;53.640;10.578;2023-04-01T20:20:56;1.80;;;1.20;;
59239;SDS011;45010;53.640;10.578;2023-04-01T20:27:20;2.10;;;1.50;;
59239;SDS011;45010;53.640;10.578;2023-04-01T20:30:42;4.05;;;1.85;;
59239;SDS011;45010;53.640;10.578;2023-04-01T20:33:53;3.53;;;1.30;;
59239;SDS011;45010;53.640;10.578;2023-04-01T20:40:44;2.85;;;1.30;;
59239;SDS011;45010;53.640;10.578;2023-04-01T21:06:27;2.10;;;1.20;;
59239;SDS011;45010;53.640;10.578;2023-04-01T21:09:44;2.90;;;1.15;;
59239;SDS011;45010;53.640;10.578;2023-04-01T21:13:02;3.13;;;1.40;;
59239;SDS011;45010;53.640;10.578;2023-04-01T21:23:11;3.92;;;1.30;;
59239;SDS011;45010;53.640;10.578;2023-04-01T21:36:52;3.00;;;1.48;;
59239;SDS011;45010;53.640;10.578;2023-04-01T21:40:20;3.83;;;1.40;;
59239;SDS011;45010;53.640;10.578;2023-04-01T22:04:17;2.65;;;1.27;;
59239;SDS011;45010;53.640;10.578;2023-04-01T22:10:50;1.77;;;1.10;;
59239;SDS011;45010;53.640;10.578;2023-04-01T22:21:21;2.42;;;1.00;;
59239;SDS011;45010;53.640;10.578;2023-04-01T22:27:58;2.30;;;1.13;;
59239;SDS011;45010;53.640;10.578;2023-04-01T22:31:05;3.05;;;1.20;;
59239;SDS011;45010;53.640;10.578;2023-04-01T22:34:15;2.90;;;1.08;;
59239;SDS011;45010;53.640;10.578;2023-04-01T22:37:23;3.33;;;0.90;;
59239;SDS011;45010;53.640;10.578;2023-04-01T22:40:39;2.10;;;1.08;;
59239;SDS011;45010;53.640;10.578;2023-04-01T22:43:54;1.77;;;1.17;;
59239;SDS011;45010;53.640;10.578;2023-04-01T22:47:00;1.65;;;1.00;;
59239;SDS011;45010;53.640;10.578;2023-04-01T22:50:19;1.60;;;0.95;;
59239;SDS011;45010;53.640;10.578;2023-04-01T22:56:38;1.17;;;0.90;;
59239;SDS011;45010;53.640;10.578;2023-04-01T22:59:45;2.60;;;0.90;;
59239;SDS011;45010;53.640;10.578;2023-04-01T23:03:04;1.48;;;0.75;;
59239;SDS011;45010;53.640;10.578;2023-04-01T23:06:08;1.05;;;0.77;;
59239;SDS011;45010;53.640;10.578;2023-04-01T23:09:20;1.40;;;0.90;;
59239;SDS011;45010;53.640;10.578;2023-04-01T23:12:33;1.58;;;0.90;;
59239;SDS011;45010;53.640;10.578;2023-04-01T23:15:34;1.52;;;0.80;;
59239;SDS011;45010;53.640;10.578;2023-04-01T23:18:37;1.83;;;0.80;;
59239;SDS011;45010;53.640;10.578;2023-04-01T23:22:02;2.30;;;0.70;;
59239;SDS011;45010;53.640;10.578;2023-04-01T23:28:19;1.90;;;0.90;;
59239;SDS011;45010;53.640;10.578;2023-04-01T23:34:35;1.73;;;1.05;;
59239;SDS011;45010;53.640;10.578;2023-04-01T23:37:36;1.55;;;0.70;;
59239;SDS011;45010;53.640;10.578;2023-04-01T23:40:36;2.22;;;0.80;;
59239;SDS011;45010;53.640;10.578;2023-04-01T23:43:38;1.55;;;0.80;;
59239;SDS011;45010;53.640;10.578;2023-04-01T23:46:42;1.35;;;0.77;;
59239;SDS011;45010;53.640;10.578;2023-04-01T23:49:47;1.40;;;0.70;;
59239;SDS011;45010;53.640;10.578;2023-04-01T23:52:57;1.55;;;0.75;;
59239;SDS011;45010;53.640;10.578;2023-04-01T23:56:01;1.38;;;0.82;;
59239;SDS011;45010;53.640;10.578;2023-04-01T23:59:02;1.38;;;0.80;;
